Time;durP1;ratioP1;P1;durP2;ratioP2;P2;SDS_P1;SDS_P2;PMS_P1;PMS_P2;Temp;Humidity;BMP_temperature;BMP_pressure;BME280_temperature;BME280_humidity;BME280_pressure;Samples;Min_cycle;Max_cycle;Signal;HPM_P1;HPM_P2
2024/04/06 00:02:13;;;;;;;20.23;1.85;;;18.10;51.50;;;;;;5083447;28;20052;-58
2024/04/06 00:06:28;;;;;;;7.43;0.90;;;17.60;51.40;;;;;;5145713;27;20376;-55
2024/04/06 00:08:54;;;;;;;35.40;2.22;;;;;;;;;;5143998;27;20158;-58
2024/04/06 00:11:21;;;;;;;28.02;1.85;;;17.80;51.70;;;;;;5145944;27;20066;-55
2024/04/06 00:13:47;;;;;;;21.73;1.95;;;17.90;50.80;;;;;;5148346;27;20139;-57
2024/04/06 00:16:14;;;;;;;23.55;1.70;;;17.80;50.30;;;;;;5145732;27;20068;-57
2024/04/06 00:18:41;;;;;;;15.43;1.60;;;17.90;50.80;;;;;;5145910;27;20082;-56
2024/04/06 00:21:08;;;;;;;15.55;2.15;;;17.50;51.00;;;;;;5145636;27;20129;-58
2024/04/06 00:23:34;;;;;;;11.18;1.45;;;17.40;55.60;;;;;;5124990;27;20067;-58
2024/04/06 00:26:01;;;;;;;9.20;1.30;;;17.30;51.80;;;;;;5145046;27;20160;-55
2024/04/06 00:28:27;;;;;;;5.00;0.80;;;17.40;52.50;;;;;;5145632;27;20063;-56
2024/04/06 00:30:54;;;;;;;9.95;1.23;;;17.70;52.50;;;;;;5144771;27;20063;-55
2024/04/06 00:33:21;;;;;;;10.60;1.83;;;17.30;51.20;;;;;;5145271;27;20079;-58
2024/04/06 00:35:48;;;;;;;5.70;1.50;;;17.30;51.70;;;;;;5144519;27;20106;-55
2024/04/06 00:38:14;;;;;;;2.85;1.05;;;16.40;51.60;;;;;;5144558;27;20063;-55
2024/04/06 00:40:41;;;;;;;5.55;1.00;;;17.30;52.50;;;;;;5146408;27;20068;-57
2024/04/06 00:43:08;;;;;;;4.68;1.10;;;16.90;53.20;;;;;;5143556;27;20084;-58
2024/04/06 00:45:35;;;;;;;10.13;1.50;;;15.40;54.70;;;;;;5143053;27;20123;-58
2024/04/06 00:48:01;;;;;;;6.70;1.45;;;16.70;54.20;;;;;;5143443;27;20151;-58
2024/04/06 00:50:29;;;;;;;14.20;1.88;;;17.60;69.90;;;;;;5143674;27;20078;-57
2024/04/06 00:52:55;;;;;;;4.28;1.45;;;16.40;55.20;;;;;;5144289;27;20181;-56
2024/04/06 00:55:22;;;;;;;6.95;1.27;;;16.60;55.30;;;;;;5144814;27;20154;-60
2024/04/06 00:57:49;;;;;;;11.80;1.17;;;16.60;55.50;;;;;;5142897;27;20156;-56
2024/04/06 01:00:16;;;;;;;13.50;1.65;;;16.50;55.90;;;;;;5142235;27;20083;-54
2024/04/06 01:02:43;;;;;;;5.40;0.80;;;16.50;56.70;;;;;;5143398;27;20361;-56
2024/04/06 01:05:09;;;;;;;8.60;1.20;;;16.40;57.30;;;;;;5143030;27;20115;-58
2024/04/06 01:07:39;;;;;;;9.82;1.48;;;16.40;57.10;;;;;;5142903;27;20385;-57
2024/04/06 01:10:06;;;;;;;7.65;1.55;;;17.10;57.00;;;;;;5144161;27;20150;-54
2024/04/06 01:12:34;;;;;;;17.02;2.78;;;16.20;56.60;;;;;;5143408;27;20152;-58
2024/04/06 01:15:01;;;;;;;19.58;2.25;;;16.30;57.00;;;;;;5142910;27;20402;-58
2024/04/06 01:17:27;;;;;;;12.57;2.15;;;17.60;57.60;;;;;;5131954;27;20407;-58
2024/04/06 01:19:54;;;;;;;10.80;2.03;;;;;;;;;;5129176;27;20078;-55
2024/04/06 01:22:20;;;;;;;5.22;1.90;;;16.30;56.20;;;;;;5129596;27;20068;-59
2024/04/06 01:24:46;;;;;;;12.77;2.45;;;14.60;56.90;;;;;;5129974;27;20215;-56
2024/04/06 01:27:13;;;;;;;11.70;2.20;;;;;;;;;;5130704;27;20154;-58
2024/04/06 01:29:40;;;;;;;16.08;2.65;;;15.70;58.70;;;;;;5128440;27;20068;-53
2024/04/06 01:32:06;;;;;;;8.02;1.85;;;15.70;59.10;;;;;;5130015;27;20192;-56
2024/04/06 01:34:33;;;;;;;10.55;2.10;;;15.70;58.80;;;;;;5130190;27;20585;-55
2024/04/06 01:36:59;;;;;;;11.38;1.73;;;15.60;58.10;;;;;;5128959;27;20187;-57
2024/04/06 01:39:26;;;;;;;12.20;1.90;;;15.30;63.40;;;;;;5130076;27;20505;-55
2024/04/06 01:41:52;;;;;;;8.80;1.65;;;16.00;57.00;;;;;;5128046;27;20071;-54
2024/04/06 01:44:19;;;;;;;7.85;1.85;;;15.50;57.10;;;;;;5129277;27;20076;-56
2024/04/06 01:46:45;;;;;;;8.13;1.50;;;;;;;;;;5127215;27;20160;-58
2024/04/06 01:49:12;;;;;;;13.93;2.20;;;15.10;59.40;;;;;;5129560;27;20525;-56
2024/04/06 01:51:39;;;;;;;11.57;1.90;;;15.00;67.60;;;;;;5110457;27;20163;-58
2024/04/06 01:54:05;;;;;;;11.82;1.35;;;;;;;;;;5130648;27;20060;-55
2024/04/06 01:56:32;;;;;;;8.43;2.03;;;14.70;55.90;;;;;;5130167;27;20416;-56
2024/04/06 01:58:58;;;;;;;8.80;1.67;;;;;;;;;;5129452;27;20064;-53
2024/04/06 02:01:25;;;;;;;9.23;1.63;;;;;;;;;;5110481;27;20147;-56
2024/04/06 02:03:52;;;;;;;14.57;1.73;;;15.00;59.40;;;;;;5130483;27;20060;-54
2024/04/06 02:06:19;;;;;;;16.98;1.80;;;15.50;55.50;;;;;;5109074;27;20195;-57
2024/04/06 02:08:45;;;;;;;9.50;1.77;;;15.30;54.90;;;;;;5128833;27;20082;-57
2024/04/06 02:11:12;;;;;;;9.93;1.42;;;14.40;54.80;;;;;;5130040;27;20277;-59
2024/04/06 02:13:38;;;;;;;8.23;1.52;;;15.70;54.70;;;;;;5127745;27;20113;-59
2024/04/06 02:16:05;;;;;;;9.15;1.77;;;14.30;54.00;;;;;;5109760;27;20067;-55
2024/04/06 02:18:32;;;;;;;5.97;1.88;;;;;;;;;;5128776;27;20171;-55
2024/04/06 02:20:58;;;;;;;7.60;2.10;;;14.70;55.30;;;;;;5129627;27;20521;-53
2024/04/06 02:23:25;;;;;;;8.88;1.90;;;15.30;55.20;;;;;;5130048;27;20094;-56
2024/04/06 02:25:52;;;;;;;11.88;2.00;;;15.20;55.30;;;;;;5128576;27;20554;-51
2024/04/06 02:28:18;;;;;;;14.05;1.63;;;;;;;;;;5128284;27;20088;-54
2024/04/06 02:30:46;;;;;;;9.15;2.65;;;15.10;54.00;;;;;;5129399;27;20509;-53
2024/04/06 02:33:13;;;;;;;9.65;4.38;;;14.90;53.90;;;;;;5128853;27;20068;-54
2024/04/06 02:35:39;;;;;;;8.18;3.10;;;14.20;55.80;;;;;;5127418;27;20082;-55
2024/04/06 02:38:06;;;;;;;8.43;2.22;;;14.70;57.40;;;;;;5127132;27;20856;-55
2024/04/06 02:40:32;;;;;;;9.98;2.28;;;14.90;55.10;;;;;;5127677;27;20059;-52
2024/04/06 02:42:58;;;;;;;6.28;1.70;;;14.80;55.40;;;;;;5128458;27;20106;-59
2024/04/06 02:45:25;;;;;;;7.43;1.80;;;16.20;61.10;;;;;;5110145;27;20164;-56
2024/04/06 02:47:51;;;;;;;7.40;2.20;;;14.40;57.60;;;;;;5129280;27;20060;-56
2024/04/06 02:50:18;;;;;;;5.88;1.88;;;;;;;;;;5108447;27;20104;-56
2024/04/06 02:52:44;;;;;;;6.18;1.90;;;;;;;;;;5128986;27;20124;-57
2024/04/06 02:55:11;;;;;;;5.38;2.00;;;14.60;57.50;;;;;;5109188;27;20151;-60
2024/04/06 02:57:37;;;;;;;6.97;2.00;;;;;;;;;;5127838;27;20151;-61
2024/04/06 03:00:04;;;;;;;6.78;2.28;;;;;;;;;;5127106;27;20137;-58
2024/04/06 03:02:33;;;;;;;9.18;3.00;;;14.50;59.00;;;;;;5126278;27;20102;-58
2024/04/06 03:05:00;;;;;;;8.93;3.38;;;14.50;59.50;;;;;;5127092;27;20119;-58
2024/04/06 03:07:26;;;;;;;9.52;4.82;;;14.40;60.10;;;;;;5127995;27;20119;-57
2024/04/06 03:09:52;;;;;;;9.45;2.78;;;14.00;60.20;;;;;;5128090;27;20076;-59
2024/04/06 03:12:19;;;;;;;7.43;2.75;;;14.20;61.00;;;;;;5128519;27;20486;-56
2024/04/06 03:14:45;;;;;;;8.00;2.38;;;14.30;61.30;;;;;;5129044;27;20783;-57
2024/04/06 03:17:12;;;;;;;6.72;3.90;;;14.20;61.40;;;;;;5128523;27;20076;-57
2024/04/06 03:19:38;;;;;;;8.25;2.85;;;14.30;61.80;;;;;;5128484;27;20097;-58
2024/04/06 03:22:05;;;;;;;11.75;3.05;;;14.10;61.60;;;;;;5126936;27;20118;-58
2024/04/06 03:24:31;;;;;;;7.45;3.10;;;14.10;61.00;;;;;;5108764;27;20095;-51
2024/04/06 03:26:57;;;;;;;;;;;14.00;62.00;;;;;;5131919;27;20063;-56
2024/04/06 03:29:23;;;;;;;9.27;3.17;;;14.00;62.40;;;;;;5128580;27;19951;-59
2024/04/06 03:31:51;;;;;;;7.68;2.13;;;13.90;62.50;;;;;;5127542;27;20362;-61
2024/04/06 03:34:18;;;;;;;14.88;3.15;;;13.90;62.50;;;;;;5126105;27;20085;-55
2024/04/06 03:36:44;;;;;;;10.25;3.10;;;13.80;62.70;;;;;;5127566;27;20072;-54
2024/04/06 03:39:11;;;;;;;7.78;3.00;;;13.80;62.70;;;;;;5126808;27;20651;-56
2024/04/06 03:41:37;;;;;;;6.47;2.20;;;13.80;63.10;;;;;;5126509;27;20071;-53
2024/04/06 03:44:03;;;;;;;;;;;13.80;63.10;;;;;;5128116;27;20068;-58
2024/04/06 03:46:30;;;;;;;9.77;2.67;;;13.80;62.70;;;;;;5125448;27;20094;-59
2024/04/06 03:48:57;;;;;;;7.45;2.15;;;13.90;61.50;;;;;;5127852;27;20079;-56
2024/04/06 03:51:26;;;;;;;9.82;2.25;;;13.80;61.20;;;;;;5127752;27;20063;-57
2024/04/06 03:53:52;;;;;;;8.68;1.60;;;13.80;61.80;;;;;;5127037;27;20517;-54
2024/04/06 03:56:19;;;;;;;4.82;1.58;;;14.10;61.30;;;;;;5108880;28;20178;-55
2024/04/06 03:58:45;;;;;;;5.65;1.27;;;13.70;61.10;;;;;;5127638;27;20067;-54
2024/04/06 04:01:12;;;;;;;7.13;1.83;;;13.60;61.10;;;;;;5126037;27;20418;-58
2024/04/06 04:03:39;;;;;;;4.97;1.42;;;13.90;61.80;;;;;;5126752;28;20122;-59
2024/04/06 04:06:06;;;;;;;7.57;2.03;;;13.70;61.50;;;;;;5125409;28;20111;-56
2024/04/06 04:08:33;;;;;;;5.90;1.70;;;13.90;62.30;;;;;;5127622;28;20075;-57
2024/04/06 04:10:59;;;;;;;5.55;2.00;;;13.90;62.40;;;;;;5126299;28;20068;-58
2024/04/06 04:13:26;;;;;;;7.07;2.40;;;13.90;62.50;;;;;;5128700;28;20068;-57
2024/04/06 04:15:54;;;;;;;8.57;1.80;;;13.80;62.80;;;;;;5126278;28;20072;-55
2024/04/06 04:18:20;;;;;;;4.93;1.70;;;13.70;63.30;;;;;;5127920;28;20088;-57
2024/04/06 04:20:47;;;;;;;5.78;1.70;;;13.60;63.80;;;;;;5124242;28;20078;-55
2024/04/06 04:23:13;;;;;;;14.23;2.22;;;13.60;64.10;;;;;;5126692;28;20563;-55
2024/04/06 04:25:40;;;;;;;15.02;2.78;;;13.60;64.50;;;;;;5108713;28;20666;-60
2024/04/06 04:28:06;;;;;;;6.20;1.42;;;13.50;64.70;;;;;;5126651;28;20064;-55
2024/04/06 04:30:33;;;;;;;4.40;1.33;;;13.30;64.70;;;;;;5124919;28;20168;-55
2024/04/06 04:32:59;;;;;;;7.78;1.63;;;12.70;63.60;;;;;;5125012;28;20106;-61
2024/04/06 04:35:26;;;;;;;3.15;1.15;;;;;;;;;;5126949;28;20068;-55
2024/04/06 04:37:53;;;;;;;3.95;1.20;;;13.20;64.20;;;;;;5128490;28;20086;-60
2024/04/06 04:40:19;;;;;;;53.90;4.70;;;13.40;64.80;;;;;;5126464;28;20159;-58
2024/04/06 04:42:46;;;;;;;15.25;1.88;;;12.90;64.30;;;;;;5126750;28;20103;-56
2024/04/06 04:45:14;;;;;;;3.53;1.20;;;13.20;64.60;;;;;;5125372;28;20131;-55
2024/04/06 04:47:42;;;;;;;1.98;0.80;;;13.40;64.10;;;;;;5125056;28;20078;-54
2024/04/06 04:50:09;;;;;;;12.70;1.13;;;13.10;63.80;;;;;;5107094;28;20113;-55
2024/04/06 04:52:36;;;;;;;2.00;0.88;;;13.20;64.30;;;;;;5129503;27;20060;-56
2024/04/06 04:55:04;;;;;;;4.00;0.75;;;13.20;64.90;;;;;;5130849;27;20494;-56
2024/04/06 04:57:31;;;;;;;14.65;2.17;;;13.10;65.00;;;;;;5129848;27;20096;-53
2024/04/06 04:59:58;;;;;;;6.13;1.30;;;;;;;;;;5130376;27;20141;-57
2024/04/06 05:02:24;;;;;;;22.05;1.98;;;13.10;62.90;;;;;;5110391;27;20098;-60
2024/04/06 05:04:52;;;;;;;5.35;1.35;;;12.20;61.70;;;;;;5130328;27;20111;-53
2024/04/06 05:07:24;;;;;;;4.40;1.80;;;13.10;62.80;;;;;;5130244;27;20076;-58
2024/04/06 05:09:52;;;;;;;4.70;1.65;;;13.10;62.90;;;;;;5129620;27;20406;-56
2024/04/06 05:12:22;;;;;;;5.85;1.85;;;13.20;62.90;;;;;;5113177;27;20071;-57
2024/04/06 05:14:49;;;;;;;4.00;2.55;;;13.10;63.00;;;;;;5127751;27;20075;-56
2024/04/06 05:17:16;;;;;;;7.05;1.95;;;13.10;62.80;;;;;;5130049;27;20090;-56
2024/04/06 05:19:42;;;;;;;9.07;1.55;;;13.20;62.60;;;;;;5128759;27;20091;-59
2024/04/06 05:22:09;;;;;;;6.07;1.40;;;13.10;62.70;;;;;;5130161;27;20179;-60
2024/04/06 05:24:35;;;;;;;7.57;2.00;;;13.10;62.90;;;;;;5130159;27;20096;-58
2024/04/06 05:27:02;;;;;;;7.57;1.52;;;13.10;63.10;;;;;;5129997;27;20072;-57
2024/04/06 05:29:29;;;;;;;6.75;1.50;;;13.10;63.40;;;;;;5128800;27;20075;-57
2024/04/06 05:31:57;;;;;;;5.15;1.65;;;13.00;63.60;;;;;;5129010;27;20462;-58
2024/04/06 05:34:23;;;;;;;5.30;1.48;;;13.00;63.90;;;;;;5128346;27;20588;-56
2024/04/06 05:36:52;;;;;;;4.05;1.67;;;13.00;64.10;;;;;;5130371;27;20539;-56
2024/04/06 05:39:19;;;;;;;3.60;1.88;;;12.90;64.60;;;;;;5129955;27;20071;-56
2024/04/06 05:41:45;;;;;;;4.47;1.73;;;12.80;64.90;;;;;;5129716;27;20070;-57
2024/04/06 05:44:12;;;;;;;6.88;1.98;;;12.80;65.20;;;;;;5130051;27;20112;-57
2024/04/06 05:46:38;;;;;;;5.70;1.80;;;12.90;65.70;;;;;;5129574;27;20108;-58
2024/04/06 05:49:08;;;;;;;3.60;1.55;;;12.80;66.00;;;;;;5128631;27;20462;-56
2024/04/06 05:51:34;;;;;;;2.67;1.10;;;12.80;66.40;;;;;;5128993;27;20155;-58
2024/04/06 05:54:01;;;;;;;4.70;1.45;;;12.80;66.20;;;;;;5128099;27;20119;-54
2024/04/06 05:56:28;;;;;;;3.42;1.02;;;12.80;66.20;;;;;;5127632;27;20093;-56
2024/04/06 05:58:54;;;;;;;;;;;12.70;65.70;;;;;;5129242;27;20072;-58
2024/04/06 06:01:21;;;;;;;2.25;1.10;;;12.80;65.20;;;;;;5111548;27;20062;-56
2024/04/06 06:03:48;;;;;;;5.47;1.50;;;12.80;63.90;;;;;;5129543;27;21170;-57
2024/04/06 06:06:15;;;;;;;4.40;1.30;;;12.80;63.20;;;;;;5128646;27;20122;-56
2024/04/06 06:08:41;;;;;;;4.50;1.70;;;12.80;63.30;;;;;;5129363;27;20072;-54
2024/04/06 06:11:08;;;;;;;5.07;1.48;;;12.90;62.70;;;;;;5128301;27;20068;-56
2024/04/06 06:13:35;;;;;;;6.75;1.65;;;12.90;62.60;;;;;;5129858;27;20078;-55
2024/04/06 06:16:02;;;;;;;4.63;1.33;;;12.90;62.40;;;;;;5129587;27;20067;-56
2024/04/06 06:18:29;;;;;;;4.43;1.60;;;12.90;62.20;;;;;;5129232;27;20090;-58
2024/04/06 06:20:55;;;;;;;7.53;1.70;;;12.90;62.10;;;;;;5128782;27;20180;-59
2024/04/06 06:23:21;;;;;;;6.43;1.58;;;12.80;62.20;;;;;;5130401;27;20059;-58
2024/04/06 06:25:48;;;;;;;8.23;1.90;;;12.90;62.40;;;;;;5128458;27;20225;-56
2024/04/06 06:28:15;;;;;;;5.95;1.52;;;12.90;62.50;;;;;;5127716;27;20071;-58
2024/04/06 06:30:42;;;;;;;5.53;1.73;;;12.80;62.70;;;;;;5127863;27;20081;-58
2024/04/06 06:33:09;;;;;;;6.25;1.45;;;12.90;62.80;;;;;;5127387;27;20143;-59
2024/04/06 06:35:36;;;;;;;5.43;1.70;;;12.90;62.70;;;;;;5129469;27;20059;-55
2024/04/06 06:38:02;;;;;;;9.50;2.20;;;12.80;62.80;;;;;;5126653;27;20059;-60
2024/04/06 06:40:29;;;;;;;8.68;1.70;;;12.80;63.20;;;;;;5109359;27;20071;-60
2024/04/06 06:42:55;;;;;;;5.32;1.60;;;12.80;62.90;;;;;;5127993;27;20175;-59
2024/04/06 06:45:21;;;;;;;5.03;1.50;;;12.90;63.10;;;;;;5128595;27;20096;-58
2024/04/06 06:47:48;;;;;;;5.03;1.48;;;12.80;63.00;;;;;;5128668;27;20178;-58
2024/04/06 06:50:14;;;;;;;4.53;1.52;;;12.80;63.10;;;;;;5128753;27;20441;-59
2024/04/06 06:52:41;;;;;;;5.97;1.80;;;12.80;63.20;;;;;;5127065;27;20071;-55
2024/04/06 06:55:09;;;;;;;8.88;1.50;;;12.80;63.20;;;;;;5127934;27;20075;-56
2024/04/06 06:57:35;;;;;;;4.03;1.63;;;12.80;63.00;;;;;;5126521;27;20083;-56
2024/04/06 07:00:02;;;;;;;10.45;1.88;;;12.80;62.90;;;;;;5128325;27;20554;-55
2024/04/06 07:02:29;;;;;;;5.93;2.03;;;12.80;62.70;;;;;;5128774;27;20072;-58
2024/04/06 07:04:55;;;;;;;;;;;12.80;62.70;;;;;;5128089;27;20120;-57
2024/04/06 07:07:21;;;;;;;6.65;1.75;;;12.80;63.70;;;;;;5128704;27;20324;-57
2024/04/06 07:09:47;;;;;;;;;;;12.80;63.10;;;;;;5128664;27;20064;-58
2024/04/06 07:12:13;;;;;;;8.68;3.35;;;12.70;63.00;;;;;;5127438;27;19951;-57
2024/04/06 07:14:39;;;;;;;;;;;12.70;63.00;;;;;;5128543;27;20091;-59
2024/04/06 07:17:06;;;;;;;6.90;2.03;;;12.80;62.90;;;;;;5127740;27;20401;-58
2024/04/06 07:19:32;;;;;;;5.25;1.75;;;12.80;62.70;;;;;;5125832;27;20535;-60
2024/04/06 07:21:59;;;;;;;7.50;2.83;;;12.80;62.50;;;;;;5127368;27;20517;-56
2024/04/06 07:24:25;;;;;;;6.15;2.20;;;12.80;62.60;;;;;;5126514;27;20068;-57
2024/04/06 07:26:52;;;;;;;4.07;1.48;;;12.80;62.50;;;;;;5127332;27;20458;-55
2024/04/06 07:29:18;;;;;;;4.40;1.45;;;12.70;62.40;;;;;;5108215;27;20079;-55
2024/04/06 07:31:45;;;;;;;7.85;1.40;;;12.80;62.60;;;;;;5128594;27;20151;-57
2024/04/06 07:34:11;;;;;;;5.80;1.67;;;12.80;62.60;;;;;;5124803;27;20486;-55
2024/04/06 07:36:38;;;;;;;7.75;1.67;;;12.70;62.60;;;;;;5127738;27;20099;-55
2024/04/06 07:39:04;;;;;;;6.50;1.95;;;12.70;62.50;;;;;;5125348;27;20597;-59
2024/04/06 07:41:30;;;;;;;6.97;2.03;;;12.70;62.70;;;;;;5125329;27;20071;-57
2024/04/06 07:43:57;;;;;;;8.57;2.47;;;12.70;62.70;;;;;;5125980;27;20071;-58
2024/04/06 07:46:23;;;;;;;6.15;2.40;;;12.60;62.90;;;;;;5109056;27;21286;-58
2024/04/06 07:48:50;;;;;;;5.65;1.88;;;12.60;63.30;;;;;;5127264;27;20067;-58
2024/04/06 07:51:16;;;;;;;7.63;2.00;;;12.70;63.40;;;;;;5127022;27;20539;-59
2024/04/06 07:53:43;;;;;;;6.20;1.40;;;12.70;63.50;;;;;;5126572;27;21626;-57
2024/04/06 07:56:09;;;;;;;;;;;12.70;63.60;;;;;;5128394;27;20064;-58
2024/04/06 07:58:35;;;;;;;4.97;1.60;;;12.60;63.90;;;;;;5127110;27;20009;-56
2024/04/06 08:01:04;;;;;;;2.95;1.15;;;12.70;64.10;;;;;;5126195;27;20099;-57
2024/04/06 08:03:31;;;;;;;3.60;1.48;;;12.70;64.50;;;;;;5126195;27;20428;-58
2024/04/06 08:06:01;;;;;;;4.07;1.67;;;12.60;64.60;;;;;;5124578;28;20118;-56
2024/04/06 08:08:27;;;;;;;4.30;1.63;;;12.70;65.70;;;;;;5126977;28;20064;-56
2024/04/06 08:10:54;;;;;;;6.80;1.90;;;12.60;66.10;;;;;;5125972;28;20072;-58
2024/04/06 08:13:20;;;;;;;3.60;1.60;;;12.70;66.40;;;;;;5126324;28;20122;-55
2024/04/06 08:15:47;;;;;;;7.38;1.65;;;12.60;67.10;;;;;;5127835;28;21713;-56
2024/04/06 08:18:13;;;;;;;3.78;1.48;;;12.50;67.60;;;;;;5109479;28;20763;-58
2024/04/06 08:20:40;;;;;;;4.80;2.08;;;12.50;68.10;;;;;;5128518;28;20114;-55
2024/04/06 08:23:18;;;;;;;6.22;3.20;;;12.40;68.40;;;;;;5126246;28;20072;-55
2024/04/06 08:25:45;;;;;;;7.15;2.35;;;12.40;68.70;;;;;;5107339;28;20115;-59
2024/04/06 08:28:12;;;;;;;6.07;1.50;;;12.40;69.00;;;;;;5130800;27;20815;-58
2024/04/06 08:30:39;;;;;;;6.20;2.00;;;12.40;69.30;;;;;;5129060;27;20099;-57
2024/04/06 08:33:06;;;;;;;6.38;2.15;;;12.30;69.40;;;;;;5131441;27;20127;-56
2024/04/06 08:35:36;;;;;;;6.10;2.28;;;12.30;69.40;;;;;;5129085;27;20072;-58
2024/04/06 08:38:07;;;;;;;6.63;1.48;;;12.30;69.40;;;;;;5131309;27;20060;-58
2024/04/06 08:40:44;;;;;;;5.50;1.63;;;12.30;69.30;;;;;;5130008;27;20429;-56
2024/04/06 08:43:13;;;;;;;5.07;1.65;;;12.30;69.40;;;;;;5130570;27;20064;-55
2024/04/06 08:45:42;;;;;;;4.53;1.60;;;12.30;69.30;;;;;;5129063;27;20221;-56
2024/04/06 08:48:09;;;;;;;5.60;1.50;;;12.30;68.90;;;;;;5131917;27;20565;-56
2024/04/06 08:50:37;;;;;;;7.32;1.90;;;12.30;68.40;;;;;;5129847;27;20075;-56
2024/04/06 08:53:06;;;;;;;4.55;1.73;;;12.30;68.10;;;;;;5130678;27;20071;-55
2024/04/06 08:55:33;;;;;;;6.05;1.58;;;12.30;68.20;;;;;;5128644;27;20545;-57
2024/04/06 08:58:00;;;;;;;6.68;1.73;;;12.30;68.20;;;;;;5127994;27;20126;-55
2024/04/06 09:00:27;;;;;;;5.93;1.48;;;12.30;68.30;;;;;;5130420;27;20071;-58
2024/04/06 09:02:54;;;;;;;4.80;1.40;;;12.30;68.60;;;;;;5129405;27;20206;-58
2024/04/06 09:05:20;;;;;;;5.75;1.88;;;12.30;69.40;;;;;;5111537;27;20163;-57
2024/04/06 09:07:48;;;;;;;6.22;1.65;;;12.20;68.80;;;;;;5129857;27;20076;-58
2024/04/06 09:10:15;;;;;;;4.78;1.65;;;12.20;68.80;;;;;;5130270;27;20292;-57
2024/04/06 09:12:44;;;;;;;7.75;1.98;;;12.20;69.00;;;;;;5128209;27;20068;-58
2024/04/06 09:15:17;;;;;;;7.55;1.88;;;12.20;69.20;;;;;;5130250;27;20076;-58
2024/04/06 09:17:44;;;;;;;7.03;2.70;;;12.10;69.10;;;;;;5112920;27;20075;-58
2024/04/06 09:20:12;;;;;;;6.45;1.88;;;12.10;69.30;;;;;;5129512;27;20078;-57
2024/04/06 09:22:42;;;;;;;9.13;2.10;;;12.10;69.30;;;;;;5130831;27;20568;-57
2024/04/06 09:25:08;;;;;;;5.10;1.73;;;12.10;69.10;;;;;;5128758;27;20099;-55
2024/04/06 09:27:35;;;;;;;5.93;1.85;;;12.10;69.20;;;;;;5129395;27;20097;-54
2024/04/06 09:30:01;;;;;;;7.30;1.88;;;12.10;69.90;;;;;;5128260;27;20084;-56
2024/04/06 09:32:30;;;;;;;6.15;1.88;;;12.10;69.10;;;;;;5129467;27;20607;-57
2024/04/06 09:34:57;;;;;;;6.20;1.80;;;12.10;69.20;;;;;;5109749;27;20063;-58
2024/04/06 09:37:35;;;;;;;7.22;2.30;;;12.10;68.40;;;;;;5128159;27;20068;-58
2024/04/06 09:40:02;;;;;;;8.15;2.45;;;12.10;68.70;;;;;;5128716;27;20064;-57
2024/04/06 09:42:30;;;;;;;6.28;1.70;;;12.10;68.40;;;;;;5111396;27;20072;-59
2024/04/06 09:44:57;;;;;;;7.03;2.00;;;12.10;68.20;;;;;;5093918;27;20288;-59
2024/04/06 09:47:24;;;;;;;7.63;1.80;;;12.10;68.10;;;;;;5128616;27;20086;-59
2024/04/06 09:49:51;;;;;;;4.50;1.65;;;12.10;68.40;;;;;;5129765;27;20082;-56
2024/04/06 09:52:21;;;;;;;5.03;1.95;;;12.00;68.50;;;;;;5128954;27;20071;-58
2024/04/06 09:54:48;;;;;;;5.82;1.80;;;12.00;68.50;;;;;;5130563;27;20189;-57
2024/04/06 09:57:14;;;;;;;8.88;1.95;;;12.00;68.30;;;;;;5126234;27;20067;-56
2024/04/06 09:59:43;;;;;;;5.85;1.85;;;12.00;68.30;;;;;;5129260;27;20113;-56
2024/04/06 10:02:09;;;;;;;5.68;1.95;;;11.90;68.20;;;;;;5129196;27;20076;-56
2024/04/06 10:04:37;;;;;;;7.47;2.03;;;11.80;68.30;;;;;;5128716;27;20509;-56
2024/04/06 10:07:07;;;;;;;7.70;1.70;;;11.80;68.50;;;;;;5110199;27;20100;-57
2024/04/06 10:09:37;;;;;;;9.00;2.00;;;11.70;68.60;;;;;;5128655;27;20179;-58
2024/04/06 10:12:09;;;;;;;5.00;1.80;;;11.70;68.70;;;;;;5128590;27;20063;-58
2024/04/06 10:14:44;;;;;;;7.78;2.42;;;11.70;68.70;;;;;;5128284;27;20140;-58
2024/04/06 10:17:16;;;;;;;6.38;1.90;;;11.70;68.80;;;;;;5128443;27;20075;-58
2024/04/06 10:19:44;;;;;;;7.53;2.00;;;11.70;69.00;;;;;;5128175;27;20688;-58
2024/04/06 10:22:11;;;;;;;6.15;2.10;;;11.70;69.70;;;;;;5108918;27;20091;-56
2024/04/06 10:24:38;;;;;;;7.07;2.00;;;11.70;68.70;;;;;;5129135;27;20079;-57
2024/04/06 10:27:14;;;;;;;6.55;2.17;;;11.70;68.70;;;;;;5110728;27;20067;-55
2024/04/06 10:29:41;;;;;;;6.00;1.80;;;11.70;68.60;;;;;;5129095;27;20083;-59
2024/04/06 10:32:07;;;;;;;7.30;2.10;;;11.70;68.70;;;;;;5127358;27;20147;-57
2024/04/06 10:34:33;;;;;;;;;;;11.80;68.60;;;;;;5129278;27;20074;-57
2024/04/06 10:37:00;;;;;;;8.55;2.42;;;11.80;68.50;;;;;;5128979;27;20298;-57
2024/04/06 10:39:27;;;;;;;11.38;2.85;;;11.70;68.80;;;;;;5126917;27;20174;-57
2024/04/06 10:41:53;;;;;;;9.52;2.67;;;11.60;69.20;;;;;;5109422;27;20073;-58
2024/04/06 10:44:20;;;;;;;8.50;2.63;;;11.50;69.50;;;;;;5127940;27;20163;-56
2024/04/06 10:46:47;;;;;;;9.48;2.45;;;11.50;69.80;;;;;;5128705;27;20106;-60
2024/04/06 10:49:14;;;;;;;11.00;2.33;;;11.50;69.90;;;;;;5125525;27;20064;-58
2024/04/06 10:51:41;;;;;;;7.93;2.08;;;11.50;69.80;;;;;;5127584;27;20135;-58
2024/04/06 10:54:09;;;;;;;8.50;2.70;;;11.40;70.10;;;;;;5127857;27;20211;-58
2024/04/06 10:56:36;;;;;;;8.27;2.58;;;11.40;70.20;;;;;;5128110;27;20072;-58
2024/04/06 10:59:04;;;;;;;10.63;2.67;;;11.40;70.10;;;;;;5127819;27;20124;-57
2024/04/06 11:01:39;;;;;;;8.00;2.42;;;11.40;70.20;;;;;;5126431;27;20532;-58
2024/04/06 11:04:06;;;;;;;7.80;2.38;;;11.40;69.90;;;;;;5124751;27;20518;-56
2024/04/06 11:06:32;;;;;;;7.75;2.47;;;11.40;69.60;;;;;;5108975;27;20584;-56
2024/04/06 11:09:03;;;;;;;5.53;2.30;;;11.40;69.30;;;;;;5127857;27;20086;-60
2024/04/06 11:11:29;;;;;;;6.57;2.70;;;11.50;68.80;;;;;;5128582;27;20084;-56
2024/04/06 11:13:59;;;;;;;8.48;2.47;;;11.50;68.60;;;;;;5128609;27;20068;-58
2024/04/06 11:16:26;;;;;;;5.35;2.33;;;11.50;68.50;;;;;;5106327;27;20117;-58
2024/04/06 11:18:53;;;;;;;9.27;2.50;;;11.50;68.50;;;;;;5126646;27;20128;-58
2024/04/06 11:21:19;;;;;;;7.88;2.53;;;11.60;68.70;;;;;;5127775;27;20074;-57
2024/04/06 11:23:47;;;;;;;8.23;2.28;;;11.60;68.90;;;;;;5124367;27;20068;-55
2024/04/06 11:26:19;;;;;;;9.13;2.30;;;11.60;69.20;;;;;;5125728;27;20594;-58
2024/04/06 11:28:46;;;;;;;6.53;2.33;;;11.60;69.40;;;;;;5108643;27;20064;-57
2024/04/06 11:31:16;;;;;;;8.25;2.45;;;11.60;69.80;;;;;;5102476;27;20067;-57
2024/04/06 11:33:43;;;;;;;9.40;2.67;;;11.60;70.10;;;;;;5107967;27;20068;-58
2024/04/06 11:36:09;;;;;;;7.68;2.50;;;11.50;70.40;;;;;;5125788;27;20588;-59
2024/04/06 11:38:36;;;;;;;8.63;2.58;;;11.60;70.60;;;;;;5126941;27;20064;-57
2024/04/06 11:41:02;;;;;;;10.98;3.45;;;11.60;70.70;;;;;;5128586;27;20148;-56
2024/04/06 11:43:29;;;;;;;14.20;3.63;;;11.50;70.80;;;;;;5127194;27;20428;-58
2024/04/06 11:45:55;;;;;;;;;;;11.50;71.00;;;;;;5127304;27;20146;-56
2024/04/06 11:48:22;;;;;;;16.17;5.72;;;11.50;71.40;;;;;;5128055;27;20417;-57
2024/04/06 11:50:48;;;;;;;14.07;5.55;;;11.50;71.00;;;;;;5124483;27;20108;-59
2024/04/06 11:53:15;;;;;;;17.00;4.38;;;11.50;70.80;;;;;;5127387;27;20122;-58
2024/04/06 11:55:42;;;;;;;8.10;2.78;;;11.60;70.70;;;;;;5125086;27;20588;-56
2024/04/06 11:58:09;;;;;;;8.45;2.30;;;11.60;70.50;;;;;;5126206;27;20080;-57
2024/04/06 12:00:35;;;;;;;7.65;2.38;;;11.60;70.70;;;;;;5124680;27;20094;-58
2024/04/06 12:03:01;;;;;;;5.80;2.20;;;11.50;71.20;;;;;;5124817;27;20547;-58
2024/04/06 12:05:28;;;;;;;9.43;2.40;;;11.50;71.90;;;;;;5126011;27;20405;-57
2024/04/06 12:07:55;;;;;;;14.70;2.67;;;11.40;72.40;;;;;;5126808;28;20170;-57
2024/04/06 12:10:21;;;;;;;9.27;2.40;;;11.30;72.70;;;;;;5125843;28;20063;-57
2024/04/06 12:12:48;;;;;;;8.20;1.92;;;11.30;73.00;;;;;;5126759;28;20357;-57
2024/04/06 12:15:15;;;;;;;11.10;2.65;;;11.30;73.00;;;;;;5125620;28;20141;-57
2024/04/06 12:17:41;;;;;;;9.15;2.40;;;11.30;73.00;;;;;;5126074;28;20071;-59
2024/04/06 12:20:08;;;;;;;6.97;2.10;;;11.30;73.20;;;;;;5107343;28;20110;-58
2024/04/06 12:22:35;;;;;;;8.02;2.60;;;11.30;73.40;;;;;;5126937;28;20068;-58
2024/04/06 12:25:01;;;;;;;10.10;2.88;;;11.30;73.60;;;;;;5126103;28;20382;-59
2024/04/06 12:27:28;;;;;;;12.07;2.90;;;11.20;73.50;;;;;;5127029;28;20067;-57
2024/04/06 12:29:54;;;;;;;11.80;3.13;;;11.20;73.70;;;;;;5126090;28;20076;-59
2024/04/06 12:32:21;;;;;;;10.65;2.90;;;11.20;73.80;;;;;;5125976;28;20071;-59
2024/04/06 12:34:47;;;;;;;12.80;2.42;;;11.10;74.00;;;;;;5125049;28;20167;-57
2024/04/06 12:37:14;;;;;;;11.07;3.08;;;11.10;74.40;;;;;;5125471;28;20086;-58
2024/04/06 12:39:41;;;;;;;12.32;2.85;;;11.00;74.50;;;;;;5126189;28;20186;-57
2024/04/06 12:42:08;;;;;;;9.98;2.53;;;11.00;74.80;;;;;;5127236;28;20147;-57
2024/04/06 12:44:35;;;;;;;7.50;2.28;;;10.90;74.80;;;;;;5126975;28;20087;-58
2024/04/06 12:47:02;;;;;;;9.35;2.75;;;10.90;74.90;;;;;;5125883;28;20063;-56
2024/04/06 12:49:29;;;;;;;8.05;2.40;;;10.90;74.90;;;;;;5125795;28;20086;-56
2024/04/06 12:51:58;;;;;;;10.48;2.67;;;10.90;74.80;;;;;;5125096;28;20075;-57
2024/04/06 12:54:26;;;;;;;14.52;3.22;;;10.80;75.30;;;;;;5126427;28;20079;-57